Time;durP1;ratioP1;P1;durP2;ratioP2;P2;SDS_P1;SDS_P2;PMS_P1;PMS_P2;Temp;Humidity;BMP_temperature;BMP_pressure;BME280_temperature;BME280_humidity;BME280_pressure;Samples;Min_cycle;Max_cycle;Signal;HPM_P1;HPM_P2
2021/08/27 00:00:56;;;;;;;5.77;3.77;;;20.10;99.90;;;;;;5120675;28;20195;-64
2021/08/27 00:03:22;;;;;;;6.90;4.73;;;20.00;99.90;;;;;;5120509;28;20181;-65
2021/08/27 00:05:48;;;;;;;5.83;4.87;;;20.00;99.90;;;;;;5120616;28;20778;-64
2021/08/27 00:08:14;;;;;;;6.70;4.70;;;20.00;99.90;;;;;;5120555;27;20208;-66
2021/08/27 00:10:40;;;;;;;5.20;4.23;;;19.90;99.90;;;;;;5120611;27;20420;-64
2021/08/27 00:13:06;;;;;;;4.63;3.70;;;19.90;99.90;;;;;;5120570;28;20439;-65
2021/08/27 00:15:31;;;;;;;7.77;4.67;;;19.90;99.90;;;;;;5120640;28;20188;-65
2021/08/27 00:17:57;;;;;;;4.33;3.77;;;19.90;99.90;;;;;;5120558;28;20176;-66
2021/08/27 00:20:23;;;;;;;5.43;4.07;;;19.90;99.90;;;;;;5120457;28;20253;-64
2021/08/27 00:22:48;;;;;;;7.80;4.07;;;19.80;99.90;;;;;;5120955;28;20196;-66
2021/08/27 00:25:14;;;;;;;6.53;4.37;;;19.80;99.90;;;;;;5120259;28;20223;-64
2021/08/27 00:27:40;;;;;;;6.90;4.27;;;19.80;99.90;;;;;;5120343;28;20705;-64
2021/08/27 00:30:06;;;;;;;5.50;3.93;;;19.80;99.90;;;;;;5119070;28;20202;-66
2021/08/27 00:32:32;;;;;;;6.93;4.60;;;19.80;99.90;;;;;;5120874;27;20176;-64
2021/08/27 00:34:57;;;;;;;6.23;4.50;;;19.80;99.90;;;;;;5119073;28;20780;-64
2021/08/27 00:37:23;;;;;;;7.30;5.30;;;19.80;99.90;;;;;;5120719;28;20285;-64
2021/08/27 00:39:48;;;;;;;7.80;4.70;;;19.70;99.90;;;;;;5117766;27;20193;-64
2021/08/27 00:42:14;;;;;;;7.10;5.20;;;19.70;99.90;;;;;;5116930;28;20540;-64
2021/08/27 00:44:40;;;;;;;6.90;4.90;;;19.70;99.90;;;;;;5116961;28;20771;-64
2021/08/27 00:47:05;;;;;;;9.10;5.27;;;19.70;99.90;;;;;;5117264;28;20182;-64
2021/08/27 00:49:32;;;;;;;8.73;4.73;;;19.60;99.90;;;;;;5116926;28;20184;-65
2021/08/27 00:51:57;;;;;;;5.80;4.30;;;19.60;99.90;;;;;;5115729;28;20229;-64
2021/08/27 00:54:24;;;;;;;8.53;4.70;;;19.60;99.90;;;;;;5116960;28;20397;-64
2021/08/27 00:56:50;;;;;;;7.50;5.33;;;19.60;99.90;;;;;;5117255;28;20230;-64
2021/08/27 00:59:16;;;;;;;8.80;5.73;;;19.60;99.90;;;;;;5116618;28;20413;-64
2021/08/27 01:01:42;;;;;;;6.83;5.53;;;19.50;99.90;;;;;;5116990;28;20843;-64
2021/08/27 01:04:08;;;;;;;5.83;5.20;;;19.50;99.90;;;;;;5116555;28;20484;-65
2021/08/27 01:06:57;;;;;;;8.47;6.30;;;19.40;99.90;;;;;;5149857;27;20555;-64
2021/08/27 01:09:46;;;;;;;8.10;5.83;;;19.40;99.90;;;;;;5116620;28;20404;-64
2021/08/27 01:12:18;;;;;;;6.13;5.50;;;19.30;99.90;;;;;;5116490;28;20448;-65
2021/08/27 01:14:52;;;;;;;6.63;5.70;;;19.30;99.90;;;;;;5115204;28;20427;-64
2021/08/27 01:17:30;;;;;;;6.70;5.70;;;19.30;99.90;;;;;;5116865;28;20510;-64
2021/08/27 01:20:24;;;;;;;9.20;6.17;;;19.20;99.90;;;;;;5116538;28;20459;-64
2021/08/27 01:23:19;;;;;;;9.53;6.70;;;19.20;99.90;;;;;;5116753;28;20828;-64
2021/08/27 01:25:56;;;;;;;10.13;7.00;;;19.20;99.90;;;;;;5116335;28;20984;-64
2021/08/27 01:28:23;;;;;;;11.30;5.47;;;19.20;99.90;;;;;;5116229;28;20413;-65
2021/08/27 01:30:59;;;;;;;5.60;4.87;;;19.20;99.90;;;;;;5116139;28;20431;-64
2021/08/27 01:33:26;;;;;;;5.80;5.10;;;19.20;99.90;;;;;;5116431;28;20743;-65
2021/08/27 01:35:56;;;;;;;8.53;5.97;;;19.20;99.90;;;;;;5116039;28;20432;-64
2021/08/27 01:38:28;;;;;;;6.90;5.60;;;19.20;99.90;;;;;;5115970;28;20400;-64
2021/08/27 01:40:55;;;;;;;6.97;6.20;;;19.10;99.90;;;;;;5116102;28;20439;-64
2021/08/27 01:43:22;;;;;;;5.70;4.87;;;19.10;99.90;;;;;;5115802;28;20411;-64
2021/08/27 01:45:49;;;;;;;7.47;5.80;;;19.10;99.90;;;;;;5148695;27;20501;-65
2021/08/27 01:48:15;;;;;;;8.43;6.30;;;19.10;99.90;;;;;;5114534;28;20416;-64
2021/08/27 01:50:42;;;;;;;6.43;5.17;;;19.10;99.90;;;;;;5115634;28;20432;-64
2021/08/27 01:53:08;;;;;;;6.23;5.57;;;19.10;99.90;;;;;;5115745;28;20409;-64
2021/08/27 01:55:34;;;;;;;8.67;6.30;;;19.00;99.90;;;;;;5148692;27;20436;-64
2021/08/27 01:58:04;;;;;;;8.13;6.40;;;19.00;99.90;;;;;;5114303;28;20426;-64
2021/08/27 02:00:30;;;;;;;9.10;5.27;;;19.00;99.90;;;;;;5148520;27;20471;-65
2021/08/27 02:02:58;;;;;;;6.47;5.77;;;19.00;99.90;;;;;;5115508;28;20416;-64
2021/08/27 02:05:25;;;;;;;9.07;6.57;;;19.00;99.90;;;;;;5148464;27;20542;-64
2021/08/27 02:07:52;;;;;;;13.67;7.10;;;19.00;99.90;;;;;;5114144;28;20787;-66
2021/08/27 02:10:18;;;;;;;8.27;6.00;;;19.00;99.90;;;;;;5115260;28;20489;-66
2021/08/27 02:12:44;;;;;;;6.77;5.30;;;18.90;99.90;;;;;;5115859;28;20412;-64
2021/08/27 02:15:10;;;;;;;8.50;5.63;;;18.90;99.90;;;;;;5115272;28;20724;-64
2021/08/27 02:17:36;;;;;;;7.07;6.20;;;18.90;99.90;;;;;;5115808;27;20573;-64
2021/08/27 02:20:02;;;;;;;6.80;5.50;;;18.80;99.90;;;;;;5115125;28;20432;-64
2021/08/27 02:22:31;;;;;;;7.07;5.93;;;18.80;99.90;;;;;;5114109;28;20172;-65
2021/08/27 02:25:13;;;;;;;6.27;5.50;;;18.80;99.90;;;;;;5115060;28;20865;-66
2021/08/27 02:27:40;;;;;;;6.80;5.60;;;18.80;99.90;;;;;;5114951;28;20462;-65
2021/08/27 02:30:07;;;;;;;8.13;6.10;;;18.80;99.90;;;;;;5114927;28;20420;-64
2021/08/27 02:32:33;;;;;;;7.63;5.47;;;18.80;99.90;;;;;;5113902;28;20793;-66
2021/08/27 02:35:02;;;;;;;7.37;5.50;;;18.70;99.90;;;;;;5113494;28;20889;-66
2021/08/27 02:37:31;;;;;;;7.20;5.93;;;18.70;99.90;;;;;;5115310;28;20489;-65
2021/08/27 02:39:57;;;;;;;8.43;7.30;;;18.70;99.90;;;;;;5114791;28;20845;-64
2021/08/27 02:42:27;;;;;;;8.60;6.20;;;18.70;99.90;;;;;;5115374;28;20909;-64
2021/08/27 02:44:53;;;;;;;8.07;6.23;;;18.70;99.90;;;;;;5114550;28;20513;-64
2021/08/27 02:47:19;;;;;;;9.30;7.00;;;18.70;99.90;;;;;;5114992;28;20434;-64
2021/08/27 02:49:45;;;;;;;7.50;6.70;;;18.70;99.90;;;;;;5114610;28;20421;-64
2021/08/27 02:52:44;;;;;;;8.17;6.47;;;18.70;99.90;;;;;;5114517;28;20172;-66
2021/08/27 02:55:18;;;;;;;7.57;6.77;;;18.70;99.90;;;;;;5114665;28;20724;-64
2021/08/27 02:57:52;;;;;;;10.03;7.13;;;18.60;99.90;;;;;;5115182;28;20470;-64
2021/08/27 03:00:19;;;;;;;7.80;6.60;;;18.60;99.90;;;;;;5114521;28;20481;-64
2021/08/27 03:02:47;;;;;;;8.70;6.40;;;18.50;99.90;;;;;;5114471;28;20412;-64
2021/08/27 03:05:17;;;;;;;8.70;7.17;;;18.50;99.90;;;;;;5114230;28;20513;-65
2021/08/27 03:07:59;;;;;;;8.03;6.80;;;18.50;99.90;;;;;;5147500;27;20976;-64
2021/08/27 03:10:28;;;;;;;8.90;6.50;;;18.50;99.90;;;;;;5114416;28;20469;-64
2021/08/27 03:13:03;;;;;;;6.90;5.77;;;18.50;99.90;;;;;;5114354;28;20450;-65
2021/08/27 03:15:29;;;;;;;8.13;6.30;;;18.50;99.90;;;;;;5147388;27;20434;-65
2021/08/27 03:18:02;;;;;;;9.93;6.70;;;18.40;99.90;;;;;;5114306;28;20405;-64
2021/08/27 03:20:41;;;;;;;7.87;6.40;;;18.40;99.90;;;;;;5114237;28;20192;-64
2021/08/27 03:23:10;;;;;;;8.83;6.87;;;18.40;99.90;;;;;;5112938;28;20404;-66
2021/08/27 03:25:39;;;;;;;9.80;6.90;;;18.50;99.90;;;;;;5114056;27;20479;-64
2021/08/27 03:28:11;;;;;;;9.80;6.67;;;18.50;99.90;;;;;;5114305;28;20452;-64
2021/08/27 03:30:38;;;;;;;8.20;6.00;;;18.50;99.90;;;;;;5147334;27;20527;-64
2021/08/27 03:33:09;;;;;;;7.50;6.30;;;18.50;99.90;;;;;;5114141;28;20406;-65
2021/08/27 03:35:35;;;;;;;8.10;6.30;;;18.50;99.90;;;;;;5113840;28;20456;-64
2021/08/27 03:38:01;;;;;;;6.53;5.57;;;18.50;99.90;;;;;;5114100;28;20925;-66
2021/08/27 03:40:29;;;;;;;7.20;5.43;;;18.50;99.90;;;;;;5113909;28;20412;-66
2021/08/27 03:42:57;;;;;;;7.10;5.70;;;18.50;99.90;;;;;;5113991;28;20416;-65
2021/08/27 03:45:24;;;;;;;8.90;5.07;;;18.60;99.90;;;;;;5147027;27;20988;-64
2021/08/27 03:47:51;;;;;;;6.53;5.50;;;18.60;99.90;;;;;;5147305;27;20470;-66
2021/08/27 03:50:17;;;;;;;6.30;4.93;;;18.60;99.90;;;;;;5113804;28;20471;-64
2021/08/27 03:52:45;;;;;;;8.40;5.60;;;18.60;99.90;;;;;;5147234;27;20415;-64
2021/08/27 03:55:15;;;;;;;6.47;5.07;;;18.70;99.90;;;;;;5113284;28;20431;-64
2021/08/27 03:57:46;;;;;;;4.70;4.00;;;18.70;99.90;;;;;;5114059;28;20481;-64
2021/08/27 04:00:13;;;;;;;4.60;3.50;;;18.80;99.90;;;;;;5113642;28;20428;-65
2021/08/27 04:02:39;;;;;;;5.17;3.00;;;18.80;99.90;;;;;;5114441;28;20426;-64
2021/08/27 04:05:17;;;;;;;3.23;2.93;;;18.80;99.90;;;;;;5146709;27;20988;-64
2021/08/27 04:07:44;;;;;;;5.97;3.77;;;18.80;99.90;;;;;;5114449;28;20424;-64
2021/08/27 04:10:11;;;;;;;3.93;3.60;;;18.80;99.90;;;;;;5113582;27;20438;-64
2021/08/27 04:12:40;;;;;;;4.10;2.90;;;18.80;99.90;;;;;;5114009;28;20404;-64
2021/08/27 04:15:08;;;;;;;4.70;3.80;;;18.80;99.90;;;;;;5114603;28;20434;-64
2021/08/27 04:17:33;;;;;;;5.17;3.10;;;18.80;99.90;;;;;;5150896;27;20430;-64
2021/08/27 04:19:59;;;;;;;7.20;3.43;;;18.90;99.90;;;;;;5116912;28;20941;-64
2021/08/27 04:22:25;;;;;;;3.80;2.90;;;18.80;99.90;;;;;;5116457;28;20176;-66
2021/08/27 04:24:50;;;;;;;5.13;3.83;;;18.80;99.90;;;;;;5116796;28;20212;-65
2021/08/27 04:27:16;;;;;;;6.63;3.50;;;18.80;99.90;;;;;;5116489;28;20718;-65
2021/08/27 04:29:42;;;;;;;5.23;3.60;;;18.70;99.90;;;;;;5116724;28;20296;-64
2021/08/27 04:32:08;;;;;;;8.30;3.30;;;18.70;99.90;;;;;;5112966;28;20175;-65
2021/08/27 04:34:34;;;;;;;4.90;3.20;;;18.60;99.90;;;;;;5115391;28;20204;-66
2021/08/27 04:37:00;;;;;;;4.27;3.60;;;18.60;99.90;;;;;;5116768;28;20876;-64
2021/08/27 04:39:25;;;;;;;8.67;5.53;;;18.60;99.90;;;;;;5116627;28;20455;-65
2021/08/27 04:41:51;;;;;;;14.90;9.17;;;18.50;99.90;;;;;;5115403;28;20173;-64
2021/08/27 04:44:16;;;;;;;5.47;3.67;;;18.50;99.90;;;;;;5116409;28;20218;-64
2021/08/27 04:46:42;;;;;;;6.17;4.60;;;18.50;99.90;;;;;;5116500;28;20179;-64
2021/08/27 04:49:08;;;;;;;5.57;3.27;;;18.50;99.90;;;;;;5116471;28;20221;-66
2021/08/27 04:51:33;;;;;;;6.23;4.00;;;18.40;99.90;;;;;;5116430;28;20192;-64
2021/08/27 04:53:59;;;;;;;3.63;3.07;;;18.40;99.90;;;;;;5116000;28;20175;-65
2021/08/27 04:56:24;;;;;;;5.93;3.90;;;18.40;99.90;;;;;;5116408;28;20192;-64
2021/08/27 04:58:51;;;;;;;5.60;3.87;;;18.40;99.90;;;;;;5116543;28;20214;-64
2021/08/27 05:01:16;;;;;;;4.60;3.37;;;18.30;99.90;;;;;;5116732;28;20199;-64
2021/08/27 05:03:42;;;;;;;6.00;3.60;;;18.30;99.90;;;;;;5115326;28;20909;-65
2021/08/27 05:06:07;;;;;;;7.43;3.33;;;18.20;99.90;;;;;;5116735;28;20203;-65
2021/08/27 05:08:33;;;;;;;4.37;3.40;;;18.20;99.90;;;;;;5115361;28;20186;-65
2021/08/27 05:10:59;;;;;;;6.20;4.23;;;18.20;99.90;;;;;;5116367;28;20608;-66
2021/08/27 05:13:24;;;;;;;6.17;4.50;;;18.20;99.90;;;;;;5116628;28;20178;-65
2021/08/27 05:15:50;;;;;;;4.40;3.67;;;18.20;99.90;;;;;;5115598;28;20191;-65
2021/08/27 05:18:16;;;;;;;6.90;4.50;;;18.20;99.90;;;;;;5116248;28;20176;-64
2021/08/27 05:20:42;;;;;;;5.77;3.90;;;18.20;99.90;;;;;;5114964;28;20203;-64
2021/08/27 05:23:08;;;;;;;5.43;3.73;;;18.20;99.90;;;;;;5116155;28;20901;-64
2021/08/27 05:25:33;;;;;;;6.80;4.10;;;18.20;99.90;;;;;;5115688;28;20212;-65
2021/08/27 05:27:59;;;;;;;6.57;4.80;;;18.10;99.90;;;;;;5116216;28;20231;-65
2021/08/27 05:30:24;;;;;;;7.30;5.20;;;18.10;99.90;;;;;;5116053;28;20665;-64
2021/08/27 05:32:52;;;;;;;6.67;4.67;;;18.10;99.90;;;;;;5116626;28;20542;-64
2021/08/27 05:35:18;;;;;;;8.13;5.03;;;18.00;99.90;;;;;;5114661;28;20203;-64
2021/08/27 05:37:43;;;;;;;8.03;4.50;;;18.00;99.90;;;;;;5116599;28;20462;-64
2021/08/27 05:40:10;;;;;;;8.80;4.87;;;18.10;99.90;;;;;;5115940;28;20515;-64
2021/08/27 05:42:38;;;;;;;9.30;5.50;;;18.00;99.90;;;;;;5116455;28;20186;-66
2021/08/27 05:45:05;;;;;;;5.70;4.03;;;18.10;99.90;;;;;;5114526;28;20879;-64
2021/08/27 05:47:31;;;;;;;5.50;3.90;;;18.10;99.90;;;;;;5101095;28;20486;-64
2021/08/27 05:49:58;;;;;;;5.23;4.03;;;18.10;99.90;;;;;;5095381;28;20820;-64
2021/08/27 05:52:24;;;;;;;6.83;4.70;;;18.10;99.90;;;;;;5095500;28;20413;-64
2021/08/27 05:54:50;;;;;;;6.27;4.73;;;18.10;99.90;;;;;;5101871;28;20949;-64
2021/08/27 05:57:15;;;;;;;7.73;4.97;;;18.10;99.90;;;;;;5102049;28;20416;-66
2021/08/27 05:59:41;;;;;;;7.27;4.33;;;18.10;99.90;;;;;;5143461;27;20235;-66
2021/08/27 06:02:07;;;;;;;5.17;4.10;;;18.20;99.90;;;;;;5098260;28;20187;-64
2021/08/27 06:04:32;;;;;;;6.17;4.40;;;18.20;99.90;;;;;;5113151;28;20678;-65
2021/08/27 06:06:58;;;;;;;6.23;4.30;;;18.20;99.90;;;;;;5112894;28;20175;-64
2021/08/27 06:09:24;;;;;;;8.80;4.60;;;18.20;99.90;;;;;;5113380;28;20175;-64
2021/08/27 06:11:50;;;;;;;5.20;4.53;;;18.20;99.90;;;;;;5097447;28;20435;-64
2021/08/27 06:14:16;;;;;;;6.10;4.63;;;18.20;99.90;;;;;;5094741;28;20183;-65
2021/08/27 06:16:42;;;;;;;7.50;4.77;;;18.20;99.90;;;;;;5105288;28;20206;-64
2021/08/27 06:19:07;;;;;;;20.17;12.47;;;18.10;99.90;;;;;;5115044;28;20184;-66
2021/08/27 06:21:35;;;;;;;11.03;7.03;;;18.10;99.90;;;;;;5105285;28;20294;-64
2021/08/27 06:24:00;;;;;;;9.60;5.57;;;18.10;99.90;;;;;;5112308;28;20215;-64
2021/08/27 06:26:27;;;;;;;7.13;4.50;;;18.10;99.90;;;;;;5111966;28;20478;-65
2021/08/27 06:28:52;;;;;;;7.20;5.10;;;18.10;99.90;;;;;;5100430;28;20601;-65
2021/08/27 06:31:20;;;;;;;9.10;5.37;;;18.10;99.90;;;;;;5107478;28;20539;-66
2021/08/27 06:33:46;;;;;;;6.63;4.50;;;18.00;99.90;;;;;;5112907;28;20180;-65
2021/08/27 06:36:11;;;;;;;6.10;4.80;;;18.00;99.90;;;;;;5108118;28;20795;-64
2021/08/27 06:38:37;;;;;;;9.90;5.63;;;18.00;99.90;;;;;;5113713;28;20768;-65
2021/08/27 06:41:06;;;;;;;7.33;5.23;;;18.00;99.90;;;;;;5108685;28;20636;-65
2021/08/27 06:43:35;;;;;;;8.40;4.90;;;18.00;99.90;;;;;;5109766;28;20225;-66
2021/08/27 06:46:04;;;;;;;6.13;4.33;;;18.00;99.90;;;;;;5097759;28;20490;-64
2021/08/27 06:48:31;;;;;;;6.17;4.30;;;18.00;99.90;;;;;;5098489;28;20425;-64
2021/08/27 06:50:57;;;;;;;7.27;4.93;;;18.00;99.90;;;;;;5103910;28;20479;-64
2021/08/27 06:53:22;;;;;;;7.27;4.30;;;18.00;99.90;;;;;;5104420;28;20420;-65
2021/08/27 06:55:48;;;;;;;11.50;9.43;;;18.00;99.90;;;;;;5097655;28;20453;-64
2021/08/27 06:58:14;;;;;;;84.30;46.13;;;18.00;99.90;;;;;;5094588;28;20180;-65
2021/08/27 07:00:40;;;;;;;10.40;7.30;;;18.00;99.90;;;;;;5109884;28;20698;-64
2021/08/27 07:03:05;;;;;;;8.67;5.00;;;18.00;99.90;;;;;;5127985;27;20185;-64
2021/08/27 07:05:31;;;;;;;5.73;5.20;;;18.00;99.90;;;;;;5105324;28;20903;-63
2021/08/27 07:07:58;;;;;;;7.10;5.27;;;18.00;99.90;;;;;;5107199;28;20556;-65
2021/08/27 07:10:24;;;;;;;5.73;3.90;;;18.00;99.90;;;;;;5113325;28;20427;-64
2021/08/27 07:12:50;;;;;;;10.07;4.30;;;18.00;99.90;;;;;;5099839;28;20861;-63
2021/08/27 07:15:16;;;;;;;7.53;5.03;;;18.00;99.90;;;;;;5110953;28;20440;-63
2021/08/27 07:17:42;;;;;;;7.33;4.83;;;18.00;99.90;;;;;;5102973;28;20584;-63
2021/08/27 07:20:08;;;;;;;5.90;4.50;;;18.00;99.90;;;;;;5113450;28;20427;-63
2021/08/27 07:22:35;;;;;;;7.37;5.63;;;18.00;99.90;;;;;;5113133;28;20465;-63
2021/08/27 07:25:01;;;;;;;8.37;4.60;;;18.00;99.90;;;;;;5113362;28;20507;-63
2021/08/27 07:27:26;;;;;;;6.33;4.87;;;18.00;99.90;;;;;;5107503;28;20551;-63
2021/08/27 07:29:52;;;;;;;7.50;4.77;;;18.00;99.90;;;;;;5096934;28;20207;-64
2021/08/27 07:32:18;;;;;;;7.77;4.80;;;18.00;99.90;;;;;;5097755;28;20183;-63
2021/08/27 07:34:44;;;;;;;6.43;4.97;;;18.00;99.90;;;;;;5103028;28;20276;-64
2021/08/27 07:37:12;;;;;;;7.67;4.77;;;18.00;99.90;;;;;;5092447;28;20180;-63
2021/08/27 07:39:38;;;;;;;6.53;4.97;;;18.00;99.90;;;;;;5103997;28;20440;-66
2021/08/27 07:42:05;;;;;;;13.77;7.93;;;18.00;99.90;;;;;;5092015;28;20777;-65
2021/08/27 07:44:32;;;;;;;15.23;10.77;;;18.00;99.90;;;;;;5092862;28;20464;-67
2021/08/27 07:46:58;;;;;;;13.03;10.37;;;18.00;99.90;;;;;;5141617;27;20427;-66
2021/08/27 07:49:23;;;;;;;13.87;9.60;;;18.00;99.90;;;;;;5092827;28;20424;-66
2021/08/27 07:51:51;;;;;;;11.20;7.80;;;18.00;99.90;;;;;;5097153;28;20177;-67
2021/08/27 07:54:18;;;;;;;15.57;9.77;;;17.90;99.90;;;;;;5133689;27;20215;-65
2021/08/27 07:56:44;;;;;;;12.97;7.77;;;17.90;99.90;;;;;;5104086;28;20425;-62
2021/08/27 07:59:10;;;;;;;8.40;6.93;;;17.90;99.90;;;;;;5102320;28;20422;-67
2021/08/27 08:01:36;;;;;;;13.87;7.70;;;17.90;99.90;;;;;;5101808;27;20510;-67
2021/08/27 08:04:02;;;;;;;7.57;5.97;;;17.90;99.90;;;;;;5098076;28;20492;-68
2021/08/27 08:06:29;;;;;;;7.07;5.70;;;17.90;99.90;;;;;;5094285;28;20456;-68
2021/08/27 08:08:55;;;;;;;8.47;5.73;;;17.90;99.90;;;;;;5101000;28;20416;-68
2021/08/27 08:11:20;;;;;;;10.03;5.37;;;17.90;99.90;;;;;;5104259;28;20946;-68
2021/08/27 08:13:46;;;;;;;8.70;5.90;;;17.90;99.90;;;;;;5094328;28;20416;-67
2021/08/27 08:16:13;;;;;;;6.87;4.90;;;17.90;99.90;;;;;;5105677;28;20693;-67
2021/08/27 08:18:38;;;;;;;11.33;4.80;;;18.00;99.90;;;;;;5103795;28;20416;-69
2021/08/27 08:21:05;;;;;;;5.77;4.23;;;18.00;99.90;;;;;;5107961;28;20790;-67
2021/08/27 08:23:31;;;;;;;8.03;5.30;;;18.00;99.90;;;;;;5103469;28;20413;-67
2021/08/27 08:25:57;;;;;;;5.83;4.80;;;18.00;99.90;;;;;;5106844;28;20493;-67
2021/08/27 08:28:23;;;;;;;6.13;4.30;;;18.00;99.90;;;;;;5112509;28;20504;-67
2021/08/27 08:30:52;;;;;;;7.43;4.53;;;18.00;99.90;;;;;;5098161;28;20937;-67
2021/08/27 08:33:19;;;;;;;8.50;5.23;;;18.00;99.90;;;;;;5107037;28;20179;-67
2021/08/27 08:35:45;;;;;;;5.60;4.77;;;18.00;99.90;;;;;;5114694;28;20483;-70
2021/08/27 08:38:11;;;;;;;7.20;5.10;;;18.00;99.90;;;;;;5142265;27;20449;-69
2021/08/27 08:40:43;;;;;;;6.40;5.07;;;18.00;99.90;;;;;;5093222;28;20184;-67
2021/08/27 08:43:10;;;;;;;8.83;5.43;;;18.00;99.90;;;;;;5106464;28;20466;-69
2021/08/27 08:45:40;;;;;;;8.77;5.70;;;18.00;99.90;;;;;;5108115;28;20478;-68
2021/08/27 08:48:06;;;;;;;10.80;6.50;;;17.90;99.90;;;;;;5115736;28;20407;-62
2021/08/27 08:50:33;;;;;;;9.63;5.17;;;18.00;99.90;;;;;;5110324;28;20447;-61
2021/08/27 08:52:59;;;;;;;6.17;4.73;;;18.00;99.90;;;;;;5095197;28;21693;-61
2021/08/27 08:55:26;;;;;;;8.77;5.40;;;18.00;99.90;;;;;;5125758;27;20448;-60
2021/08/27 08:57:52;;;;;;;9.70;5.87;;;18.00;99.90;;;;;;5100659;28;20495;-60
2021/08/27 09:00:18;;;;;;;7.70;5.80;;;18.00;99.90;;;;;;5105431;28;20457;-64
2021/08/27 09:02:43;;;;;;;8.20;5.67;;;18.00;99.90;;;;;;5139074;27;20637;-64
2021/08/27 09:05:09;;;;;;;8.67;5.60;;;18.00;99.90;;;;;;5104883;28;20223;-64
2021/08/27 09:07:35;;;;;;;12.13;6.20;;;18.00;99.90;;;;;;5106642;28;20175;-67
2021/08/27 09:10:02;;;;;;;7.00;5.03;;;18.00;99.90;;;;;;5098783;28;20211;-64
2021/08/27 09:12:30;;;;;;;6.20;4.37;;;17.90;99.90;;;;;;5103629;28;20274;-64
2021/08/27 09:15:03;;;;;;;11.63;5.60;;;17.90;99.90;;;;;;5147917;27;20436;-64
2021/08/27 09:17:35;;;;;;;8.33;6.00;;;17.90;99.90;;;;;;5109309;28;20439;-64
2021/08/27 09:20:03;;;;;;;7.03;5.90;;;17.90;99.90;;;;;;5107532;28;20470;-65
2021/08/27 09:22:48;;;;;;;9.23;5.83;;;17.90;99.90;;;;;;5101960;28;20434;-65
2021/08/27 09:25:16;;;;;;;8.60;5.50;;;17.90;99.90;;;;;;5104769;28;20476;-62
2021/08/27 09:28:00;;;;;;;7.23;5.23;;;17.90;99.90;;;;;;5111073;28;20448;-66
2021/08/27 09:30:26;;;;;;;6.83;4.77;;;18.00;99.90;;;;;;5096111;28;20495;-68
2021/08/27 09:32:53;;;;;;;7.17;5.40;;;18.00;99.90;;;;;;5104803;28;20433;-67
2021/08/27 09:35:23;;;;;;;6.70;5.10;;;18.00;99.90;;;;;;5099814;28;20505;-67
2021/08/27 09:37:54;;;;;;;6.70;5.13;;;18.00;99.90;;;;;;5103410;28;20784;-65
2021/08/27 09:40:24;;;;;;;6.50;4.70;;;18.00;99.90;;;;;;5130491;27;20517;-65
2021/08/27 09:42:51;;;;;;;5.93;4.77;;;18.00;99.90;;;;;;5105249;28;20470;-65
2021/08/27 09:45:33;;;;;;;8.70;4.83;;;18.00;99.90;;;;;;5098088;28;20484;-65
2021/08/27 09:48:05;;;;;;;8.10;5.37;;;18.00;99.90;;;;;;5089573;28;20428;-64
2021/08/27 09:50:37;;;;;;;7.43;4.83;;;18.10;99.90;;;;;;5099949;28;20455;-68
2021/08/27 09:53:05;;;;;;;8.57;5.50;;;18.10;99.90;;;;;;5093228;28;20524;-67
2021/08/27 09:55:32;;;;;;;7.20;5.33;;;18.10;99.90;;;;;;5096474;28;20443;-67
2021/08/27 09:58:11;;;;;;;7.00;5.27;;;18.00;99.90;;;;;;5108720;28;20835;-67
2021/08/27 10:00:39;;;;;;;5.77;4.60;;;18.00;99.90;;;;;;5091901;28;20687;-64
2021/08/27 10:03:25;;;;;;;7.60;5.83;;;18.00;99.90;;;;;;5125689;27;20439;-68
2021/08/27 10:05:55;;;;;;;4.63;4.20;;;18.00;99.90;;;;;;5094629;28;20479;-64
2021/08/27 10:08:33;;;;;;;7.80;5.00;;;18.00;99.90;;;;;;5096163;28;20933;-65
2021/08/27 10:11:21;;;;;;;7.03;4.80;;;18.00;99.90;;;;;;5100991;28;20846;-64
2021/08/27 10:13:47;;;;;;;4.57;4.00;;;18.10;99.90;;;;;;5103108;28;20436;-65
2021/08/27 10:16:13;;;;;;;6.37;4.33;;;18.10;99.90;;;;;;5098645;28;21002;-65
2021/08/27 10:18:40;;;;;;;6.37;4.07;;;18.10;99.90;;;;;;5105232;28;20495;-66
2021/08/27 10:21:06;;;;;;;6.70;5.23;;;18.10;99.90;;;;;;5101115;28;20467;-67
2021/08/27 10:23:31;;;;;;;5.13;4.60;;;18.10;99.90;;;;;;5096698;28;20421;-65
2021/08/27 10:26:19;;;;;;;5.30;4.10;;;18.10;99.90;;;;;;5133458;27;20227;-65
2021/08/27 10:28:46;;;;;;;5.50;4.57;;;18.10;99.90;;;;;;5099261;28;20196;-65
2021/08/27 10:31:11;;;;;;;4.10;3.70;;;18.20;99.90;;;;;;5100457;28;20452;-65
2021/08/27 10:33:43;;;;;;;4.10;3.17;;;18.20;99.90;;;;;;5101558;28;20802;-65
2021/08/27 10:36:10;;;;;;;3.47;2.90;;;18.20;99.90;;;;;;5130287;27;20821;-65
2021/08/27 10:38:40;;;;;;;3.63;2.47;;;18.20;99.90;;;;;;5102603;28;20534;-67
2021/08/27 10:41:18;;;;;;;5.17;3.60;;;18.20;99.90;;;;;;5104744;28;20457;-66
2021/08/27 10:44:00;;;;;;;4.00;3.37;;;18.20;99.90;;;;;;5097759;28;20425;-65
2021/08/27 10:46:44;;;;;;;4.37;2.43;;;18.20;99.90;;;;;;5096262;28;20618;-65
2021/08/27 10:49:15;;;;;;;3.83;2.87;;;18.20;99.90;;;;;;5130269;27;21014;-67
2021/08/27 10:51:46;;;;;;;3.47;2.50;;;18.30;99.90;;;;;;5095384;28;20448;-65
2021/08/27 10:54:13;;;;;;;3.20;2.73;;;18.30;99.90;;;;;;5102787;28;20504;-68
2021/08/27 10:56:52;;;;;;;2.50;2.30;;;18.30;99.90;;;;;;5099503;28;20438;-67
2021/08/27 10:59:22;;;;;;;4.50;2.87;;;18.30;99.90;;;;;;5099468;28;20425;-65
2021/08/27 11:02:01;;;;;;;4.40;3.03;;;18.30;99.90;;;;;;5094688;28;20427;-67
2021/08/27 11:04:39;;;;;;;2.77;2.57;;;18.20;99.90;;;;;;5097011;28;20472;-65
2021/08/27 11:07:15;;;;;;;3.70;2.83;;;18.20;99.90;;;;;;5093478;28;20486;-67
2021/08/27 11:10:02;;;;;;;3.77;2.30;;;18.30;99.90;;;;;;5108478;28;20447;-65
2021/08/27 11:12:31;;;;;;;2.60;2.23;;;18.20;99.90;;;;;;5109735;28;20441;-68
2021/08/27 11:15:24;;;;;;;2.80;2.60;;;18.30;99.90;;;;;;5096790;28;20810;-65
2021/08/27 11:18:06;;;;;;;3.93;3.40;;;18.20;99.90;;;;;;5131255;27;20444;-65
2021/08/27 11:20:32;;;;;;;4.60;3.70;;;18.30;99.90;;;;;;5094972;28;20567;-66
2021/08/27 11:22:58;;;;;;;5.23;3.47;;;18.30;99.90;;;;;;5099931;28;20535;-68
2021/08/27 11:25:24;;;;;;;3.87;3.50;;;18.30;99.90;;;;;;5095117;28;20307;-67
2021/08/27 11:28:09;;;;;;;9.70;6.37;;;18.30;99.90;;;;;;5100100;28;20969;-65
2021/08/27 11:30:36;;;;;;;6.90;5.20;;;18.30;99.90;;;;;;5124923;28;20794;-67
2021/08/27 11:33:03;;;;;;;6.00;3.90;;;18.30;99.90;;;;;;5095639;28;20865;-69
2021/08/27 11:35:29;;;;;;;3.73;3.17;;;18.30;99.90;;;;;;5103846;28;20856;-66
2021/08/27 11:38:05;;;;;;;3.00;2.70;;;18.30;99.90;;;;;;5098338;28;20477;-66
2021/08/27 11:40:31;;;;;;;4.20;2.67;;;18.30;99.90;;;;;;5103688;28;20455;-66
2021/08/27 11:42:57;;;;;;;5.63;3.13;;;18.20;99.90;;;;;;5103099;28;20633;-65
2021/08/27 11:45:26;;;;;;;5.17;2.93;;;18.20;99.90;;;;;;5110237;28;20467;-68
2021/08/27 11:47:58;;;;;;;3.83;3.03;;;18.20;99.90;;;;;;5136337;27;20432;-67
2021/08/27 11:50:46;;;;;;;3.53;2.30;;;18.20;99.90;;;;;;5132651;27;20452;-65
2021/08/27 11:53:12;;;;;;;2.87;2.50;;;18.20;99.90;;;;;;5102065;28;20531;-68
2021/08/27 11:55:42;;;;;;;4.20;3.80;;;18.20;99.90;;;;;;5126820;28;20516;-68
2021/08/27 11:58:08;;;;;;;2.63;2.37;;;18.20;99.90;;;;;;5108064;28;20172;-68
2021/08/27 12:00:36;;;;;;;3.03;2.67;;;18.20;99.90;;;;;;5103896;28;20813;-68
2021/08/27 12:03:02;;;;;;;3.70;2.80;;;18.30;99.90;;;;;;5090983;28;20580;-65
2021/08/27 12:05:29;;;;;;;3.00;2.63;;;18.30;99.90;;;;;;5102187;28;20507;-65
2021/08/27 12:08:03;;;;;;;3.60;3.20;;;18.30;99.90;;;;;;5101024;28;20429;-69
2021/08/27 12:10:32;;;;;;;2.90;2.67;;;18.30;99.90;;;;;;5126016;27;20581;-68
2021/08/27 12:12:58;;;;;;;3.93;2.90;;;18.30;99.90;;;;;;5094363;28;20464;-69
2021/08/27 12:15:27;;;;;;;5.07;3.27;;;18.30;99.90;;;;;;5100204;28;20451;-65
2021/08/27 12:18:07;;;;;;;3.77;2.97;;;18.30;99.90;;;;;;5099768;28;20441;-65
2021/08/27 12:20:39;;;;;;;3.93;2.97;;;18.20;99.90;;;;;;5094585;28;20453;-65
2021/08/27 12:23:16;;;;;;;4.23;3.50;;;18.20;99.90;;;;;;5101890;28;20776;-68
2021/08/27 12:25:48;;;;;;;3.53;2.90;;;18.20;99.90;;;;;;5106952;28;20476;-67
2021/08/27 12:28:16;;;;;;;3.40;2.87;;;18.10;99.90;;;;;;5131747;27;20469;-65
2021/08/27 12:30:43;;;;;;;4.30;2.53;;;18.10;99.90;;;;;;5103397;28;20452;-68
2021/08/27 12:33:09;;;;;;;2.90;2.30;;;18.10;99.90;;;;;;5103267;28;20868;-67
2021/08/27 12:35:35;;;;;;;3.50;2.83;;;18.00;99.90;;;;;;5106157;28;20455;-67
2021/08/27 12:38:02;;;;;;;3.77;2.90;;;17.90;99.90;;;;;;5107917;28;20456;-67
2021/08/27 12:40:30;;;;;;;4.60;3.20;;;17.90;99.90;;;;;;5105342;28;20862;-68
2021/08/27 12:43:02;;;;;;;5.47;4.17;;;17.90;99.90;;;;;;5099460;28;20452;-65
2021/08/27 12:45:40;;;;;;;2.60;2.40;;;17.90;99.90;;;;;;5095575;28;20471;-68
2021/08/27 12:48:05;;;;;;;3.20;2.90;;;17.80;99.90;;;;;;5103182;28;20840;-68
2021/08/27 12:50:31;;;;;;;3.00;2.70;;;17.80;99.90;;;;;;5107130;28;20444;-65
2021/08/27 12:53:02;;;;;;;2.90;2.57;;;17.80;99.90;;;;;;5104451;28;21263;-68